createdAt,value
2023-05-21T00:00:55.573Z,69.58
2023-05-21T00:01:57.260Z,69.22
2023-05-21T00:02:59.411Z,69.43
2023-05-21T00:04:01.374Z,69.45
2023-05-21T00:05:03.396Z,69.48
2023-05-21T00:06:05.069Z,69.40
2023-05-21T00:07:10.149Z,69.46
2023-05-21T00:08:11.794Z,69.56
2023-05-21T00:09:13.760Z,69.48
2023-05-21T00:10:15.621Z,69.65
2023-05-21T00:11:17.485Z,69.76
2023-05-21T00:12:19.166Z,69.87
2023-05-21T00:13:20.803Z,69.57
2023-05-21T00:14:22.469Z,69.80
2023-05-21T00:15:24.109Z,69.65
2023-05-21T00:16:25.839Z,69.61
2023-05-21T00:17:28.663Z,69.79
2023-05-21T00:18:32.492Z,69.76
2023-05-21T00:19:34.230Z,69.72
2023-05-21T00:20:37.242Z,70.12
2023-05-21T00:21:39.652Z,70.20
2023-05-21T00:22:42.449Z,70.26
2023-05-21T00:23:45.539Z,70.38
2023-05-21T00:24:47.145Z,70.29
2023-05-21T00:25:50.480Z,70.43
2023-05-21T00:26:52.168Z,70.62
2023-05-21T00:27:57.481Z,70.62
2023-05-21T00:28:59.221Z,70.83
2023-05-21T00:30:00.887Z,70.95
2023-05-21T00:31:02.526Z,70.96
2023-05-21T00:32:04.603Z,70.79
2023-05-21T00:33:06.287Z,71.01
2023-05-21T00:34:07.974Z,71.20
2023-05-21T00:35:09.750Z,70.80
2023-05-21T00:36:14.578Z,71.03
2023-05-21T00:37:16.489Z,71.09
2023-05-21T00:38:18.782Z,71.14
2023-05-21T00:39:20.506Z,71.40
2023-05-21T00:40:22.280Z,71.43
2023-05-21T00:41:25.681Z,71.46
2023-05-21T00:42:27.776Z,71.49
2023-05-21T00:43:29.377Z,71.69
2023-05-21T00:44:34.468Z,71.74
2023-05-21T00:45:37.496Z,71.72
2023-05-21T00:46:39.790Z,71.87
2023-05-21T00:47:41.861Z,72.06
2023-05-21T00:48:44.321Z,72.00
2023-05-21T00:49:47.131Z,72.04
2023-05-21T00:50:49.598Z,72.07
2023-05-21T00:51:52.000Z,72.10
2023-05-21T00:52:54.495Z,72.11
2023-05-21T00:53:56.342Z,72.19
2023-05-21T00:54:57.969Z,72.36
2023-05-21T00:55:59.616Z,72.46
2023-05-21T00:57:01.251Z,72.19
2023-05-21T00:58:04.559Z,72.29
2023-05-21T00:59:06.269Z,72.47
2023-05-21T01:00:09.194Z,72.41
2023-05-21T01:01:14.135Z,72.49
2023-05-21T01:02:18.295Z,72.60
2023-05-21T01:03:20.632Z,72.65
2023-05-21T01:04:25.367Z,72.68
2023-05-21T01:05:30.224Z,72.63
2023-05-21T01:06:34.890Z,72.97
2023-05-21T01:07:39.058Z,73.06
2023-05-21T01:08:41.050Z,72.95
2023-05-21T01:09:43.071Z,73.09
2023-05-21T01:10:44.884Z,73.04
2023-05-21T01:11:47.980Z,73.60
2023-05-21T01:12:49.791Z,73.60
2023-05-21T01:13:51.469Z,73.89
2023-05-21T01:14:53.101Z,73.91
2023-05-21T01:15:54.888Z,73.99
2023-05-21T01:16:56.560Z,73.85
2023-05-21T01:17:58.322Z,73.82
2023-05-21T01:19:00.092Z,74.09
2023-05-21T01:20:01.981Z,73.93
2023-05-21T01:21:04.173Z,73.94
2023-05-21T01:22:07.431Z,73.93
2023-05-21T01:23:09.132Z,74.12
2023-05-21T01:24:10.765Z,73.99
2023-05-21T01:25:12.470Z,74.03
2023-05-21T01:26:14.119Z,74.17
2023-05-21T01:27:16.065Z,74.22
2023-05-21T01:28:17.755Z,74.14
2023-05-21T01:29:19.446Z,73.95
2023-05-21T01:30:21.465Z,74.02
2023-05-21T01:31:27.440Z,74.37
2023-05-21T01:32:53.079Z,74.54
2023-05-21T01:33:54.789Z,74.33
2023-05-21T01:35:09.893Z,74.35
2023-05-21T01:36:26.362Z,74.66
2023-05-21T01:37:48.871Z,74.84
2023-05-21T01:39:27.472Z,75.20
2023-05-21T01:40:33.482Z,75.83
2023-05-21T01:41:37.238Z,75.66
2023-05-21T01:42:39.350Z,76.09
2023-05-21T01:43:42.604Z,75.92
2023-05-21T01:44:45.164Z,76.35
2023-05-21T01:45:47.653Z,76.89
2023-05-21T01:46:49.837Z,77.30
2023-05-21T01:47:52.286Z,77.81
2023-05-21T01:48:53.958Z,77.49
2023-05-21T01:49:55.689Z,77.01
2023-05-21T01:50:58.517Z,76.84
2023-05-21T01:52:00.137Z,77.45
2023-05-21T01:53:03.761Z,77.19
2023-05-21T01:54:05.449Z,77.35
2023-05-21T01:55:07.250Z,77.36
2023-05-21T01:56:08.925Z,77.38
2023-05-21T01:57:10.616Z,78.03
2023-05-21T01:58:12.249Z,77.93
2023-05-21T01:59:13.857Z,77.58
2023-05-21T02:00:15.621Z,78.77
2023-05-21T02:01:17.302Z,78.00
2023-05-21T02:02:19.358Z,77.93
2023-05-21T02:03:21.874Z,78.14
2023-05-21T02:04:23.692Z,78.31
2023-05-21T02:05:25.536Z,78.84
2023-05-21T02:06:27.243Z,78.45
2023-05-21T02:07:29.143Z,79.09
2023-05-21T02:08:31.405Z,78.54
2023-05-21T02:09:33.156Z,78.07
2023-05-21T02:10:35.874Z,78.71
2023-05-21T02:11:37.564Z,79.28
2023-05-21T02:12:39.327Z,78.53
2023-05-21T02:13:42.881Z,77.73
2023-05-21T02:14:44.569Z,77.42
2023-05-21T02:15:47.310Z,77.94
2023-05-21T02:16:49.008Z,77.08
2023-05-21T02:17:51.526Z,76.91
2023-05-21T02:18:57.072Z,76.94
2023-05-21T02:20:07.273Z,76.59
2023-05-21T02:21:10.804Z,76.53
2023-05-21T02:22:12.455Z,76.25
2023-05-21T02:23:14.130Z,76.41
2023-05-21T02:24:15.797Z,76.32
2023-05-21T02:25:18.469Z,75.84
2023-05-21T02:26:20.115Z,76.16
2023-05-21T02:27:21.738Z,76.11
2023-05-21T02:28:24.033Z,76.20
2023-05-21T02:29:25.675Z,76.14
2023-05-21T02:30:27.294Z,76.48
2023-05-21T02:31:29.008Z,76.64
2023-05-21T02:32:32.285Z,76.16
2023-05-21T02:33:34.040Z,76.29
2023-05-21T02:34:37.399Z,76.04
2023-05-21T02:35:39.064Z,76.10
2023-05-21T02:36:41.662Z,75.97
2023-05-21T02:37:44.379Z,75.81
2023-05-21T02:38:46.738Z,75.69
2023-05-21T02:39:48.366Z,75.81
2023-05-21T02:40:53.182Z,75.81
2023-05-21T02:41:54.881Z,76.08
2023-05-21T02:42:56.536Z,75.97
2023-05-21T02:43:58.173Z,76.28
2023-05-21T02:44:59.878Z,76.00
2023-05-21T02:46:01.562Z,76.12
2023-05-21T02:47:03.240Z,76.05
2023-05-21T02:48:05.089Z,76.26
2023-05-21T02:49:06.885Z,76.41
2023-05-21T02:50:08.875Z,76.21
2023-05-21T02:51:10.525Z,76.23
2023-05-21T02:52:12.343Z,76.11
2023-05-21T02:53:14.032Z,76.49
2023-05-21T02:54:15.727Z,76.51
2023-05-21T02:55:17.391Z,76.93
2023-05-21T02:56:20.023Z,76.93
2023-05-21T02:57:21.671Z,76.92
2023-05-21T02:58:25.311Z,76.58
2023-05-21T02:59:26.954Z,76.92
2023-05-21T03:00:28.618Z,77.49
2023-05-21T03:01:30.299Z,77.07
2023-05-21T03:02:32.431Z,77.15
2023-05-21T03:03:34.238Z,77.22
2023-05-21T03:04:39.202Z,76.89
2023-05-21T03:05:41.374Z,76.77
2023-05-21T03:06:43.277Z,76.86
2023-05-21T03:07:44.907Z,77.41
2023-05-21T03:08:46.549Z,77.31
2023-05-21T03:09:48.283Z,77.07
2023-05-21T03:10:50.137Z,77.09
2023-05-21T03:11:51.797Z,77.19
2023-05-21T03:12:54.893Z,77.30
2023-05-21T03:13:56.545Z,78.55
2023-05-21T03:14:58.188Z,77.98
2023-05-21T03:15:59.863Z,76.84
2023-05-21T03:17:03.510Z,76.46
2023-05-21T03:18:05.237Z,76.02
2023-05-21T03:19:06.928Z,76.04
2023-05-21T03:20:09.526Z,75.89
2023-05-21T03:21:13.379Z,75.96
2023-05-21T03:22:15.084Z,75.58
2023-05-21T03:23:16.956Z,75.38
2023-05-21T03:24:18.778Z,75.39
2023-05-21T03:25:21.647Z,75.37
2023-05-21T03:26:24.104Z,75.39
2023-05-21T03:27:26.231Z,75.38
2023-05-21T03:28:27.860Z,75.19
2023-05-21T03:29:29.470Z,74.31
2023-05-21T03:30:31.201Z,74.43
2023-05-21T03:31:33.006Z,74.63
2023-05-21T03:32:37.953Z,74.48
2023-05-21T03:33:39.752Z,74.92
2023-05-21T03:34:41.429Z,74.33
2023-05-21T03:35:43.054Z,74.27
2023-05-21T03:36:44.745Z,74.94
2023-05-21T03:37:46.615Z,74.72
2023-05-21T03:38:48.306Z,74.66
2023-05-21T03:39:49.951Z,74.01
2023-05-21T03:40:51.583Z,73.96
2023-05-21T03:41:53.205Z,74.22
2023-05-21T03:42:54.900Z,74.14
2023-05-21T03:43:56.522Z,73.55
2023-05-21T03:44:58.190Z,73.14
2023-05-21T03:45:59.912Z,73.47
2023-05-21T03:47:01.556Z,73.32
2023-05-21T03:48:03.400Z,73.44
2023-05-21T03:49:05.161Z,73.59
2023-05-21T03:50:07.761Z,73.47
2023-05-21T03:51:09.671Z,73.17
2023-05-21T03:52:11.373Z,73.38
2023-05-21T03:53:13.913Z,73.63
2023-05-21T03:54:15.595Z,73.49
2023-05-21T03:55:17.294Z,73.32
2023-05-21T03:56:18.971Z,73.42
2023-05-21T03:57:20.587Z,72.59
2023-05-21T03:58:22.717Z,72.41
2023-05-21T03:59:24.385Z,72.63
2023-05-21T04:00:26.038Z,72.93
2023-05-21T04:01:28.491Z,73.05
2023-05-21T04:02:30.602Z,73.58
2023-05-21T04:03:36.723Z,73.35
2023-05-21T04:04:39.667Z,73.50
2023-05-21T04:05:44.638Z,73.15
2023-05-21T04:06:46.564Z,73.10
2023-05-21T04:07:48.609Z,73.47
2023-05-21T04:08:50.403Z,73.19
2023-05-21T04:09:52.074Z,73.49
2023-05-21T04:10:53.952Z,74.17
2023-05-21T04:11:56.036Z,74.13
2023-05-21T04:12:57.673Z,73.20
2023-05-21T04:13:59.349Z,73.31
2023-05-21T04:15:02.941Z,73.83
2023-05-21T04:16:04.747Z,73.89
2023-05-21T04:17:06.724Z,74.00
2023-05-21T04:18:08.482Z,73.85
2023-05-21T04:19:10.226Z,72.93
2023-05-21T04:20:13.916Z,72.31
2023-05-21T04:21:16.357Z,72.75
2023-05-21T04:22:18.064Z,72.73
2023-05-21T04:23:19.736Z,72.09
2023-05-21T04:24:22.605Z,71.98
2023-05-21T04:25:25.553Z,71.60
2023-05-21T04:26:28.179Z,71.88
2023-05-21T04:27:29.926Z,71.78
2023-05-21T04:28:31.560Z,71.54
2023-05-21T04:29:33.228Z,71.05
2023-05-21T04:30:37.730Z,71.24
2023-05-21T04:31:39.555Z,71.51
2023-05-21T04:32:41.388Z,71.55
2023-05-21T04:33:46.106Z,71.65
2023-05-21T04:34:47.926Z,71.30
2023-05-21T04:35:50.790Z,70.92
2023-05-21T04:36:52.447Z,70.18
2023-05-21T04:37:55.081Z,70.49
2023-05-21T04:38:56.797Z,70.46
2023-05-21T04:39:58.537Z,70.20
2023-05-21T04:41:03.833Z,70.07
2023-05-21T04:42:05.701Z,70.11
2023-05-21T04:43:08.271Z,70.32
2023-05-21T04:44:10.293Z,70.41
2023-05-21T04:45:11.980Z,70.53
2023-05-21T04:46:14.032Z,70.70
2023-05-21T04:47:15.805Z,70.10
2023-05-21T04:48:17.946Z,69.86
2023-05-21T04:49:21.954Z,70.03
2023-05-21T04:50:23.625Z,69.59
2023-05-21T04:51:26.780Z,68.79
2023-05-21T04:52:28.470Z,68.90
2023-05-21T04:53:31.105Z,69.51
2023-05-21T04:54:32.828Z,70.22
2023-05-21T04:55:39.642Z,69.23
2023-05-21T04:56:41.301Z,69.83
2023-05-21T04:57:42.944Z,69.40
2023-05-21T04:58:45.752Z,69.48
2023-05-21T04:59:47.871Z,69.89
2023-05-21T05:00:50.960Z,69.07
2023-05-21T05:01:52.853Z,69.81
2023-05-21T05:02:54.625Z,68.96
2023-05-21T05:03:56.660Z,69.22
2023-05-21T05:04:59.901Z,69.43
2023-05-21T05:06:04.401Z,69.33
2023-05-21T05:07:06.059Z,69.15
2023-05-21T05:08:07.771Z,68.56
2023-05-21T05:09:09.451Z,68.79
2023-05-21T05:10:11.117Z,68.72
2023-05-21T05:11:13.502Z,68.73
2023-05-21T05:12:15.186Z,69.22
2023-05-21T05:13:16.853Z,68.63
2023-05-21T05:14:18.905Z,68.49
2023-05-21T05:15:20.651Z,67.58
2023-05-21T05:16:27.997Z,67.01
2023-05-21T05:17:29.717Z,66.22
2023-05-21T05:18:31.635Z,66.32
2023-05-21T05:19:35.170Z,65.75
2023-05-21T05:20:36.906Z,65.13
2023-05-21T05:21:38.726Z,64.92
2023-05-21T05:22:40.369Z,64.50
2023-05-21T05:23:42.083Z,65.05
2023-05-21T05:24:43.741Z,64.61
2023-05-21T05:25:45.689Z,64.92
2023-05-21T05:26:47.341Z,65.07
2023-05-21T05:27:49.003Z,64.46
2023-05-21T05:28:50.849Z,64.50
2023-05-21T05:29:52.491Z,64.08
2023-05-21T05:30:54.283Z,64.84
2023-05-21T05:31:55.941Z,63.79
2023-05-21T05:32:57.668Z,63.98
2023-05-21T05:33:59.425Z,63.35
2023-05-21T05:35:02.433Z,63.80
2023-05-21T05:36:04.656Z,64.20
2023-05-21T05:37:06.322Z,64.65
2023-05-21T05:38:09.069Z,63.84
2023-05-21T05:39:10.768Z,64.44
2023-05-21T05:40:12.494Z,63.99
2023-05-21T05:41:14.185Z,63.49
2023-05-21T05:42:15.898Z,63.98
2023-05-21T05:43:17.530Z,63.87
2023-05-21T05:44:19.168Z,63.99
2023-05-21T05:45:20.999Z,63.18
2023-05-21T05:46:22.738Z,63.50
2023-05-21T05:47:24.618Z,62.57
2023-05-21T05:48:26.369Z,62.62
2023-05-21T05:49:28.006Z,62.28
2023-05-21T05:50:29.849Z,62.75
2023-05-21T05:51:31.954Z,63.12
2023-05-21T05:52:33.651Z,62.45
2023-05-21T05:53:35.290Z,62.17
2023-05-21T05:54:36.964Z,62.14
2023-05-21T05:55:39.414Z,61.61
2023-05-21T05:56:41.141Z,61.57
2023-05-21T05:57:44.991Z,61.64
2023-05-21T05:58:46.896Z,61.54
2023-05-21T05:59:48.594Z,62.14
2023-05-21T06:00:50.266Z,60.69
2023-05-21T06:01:51.915Z,60.65
2023-05-21T06:02:53.711Z,58.98
2023-05-21T06:03:57.405Z,59.51
2023-05-21T06:04:59.177Z,58.80
2023-05-21T06:06:00.928Z,59.12
2023-05-21T06:07:02.714Z,58.82
2023-05-21T06:08:04.667Z,59.62
2023-05-21T06:09:06.475Z,58.95
2023-05-21T06:10:08.529Z,57.93
2023-05-21T06:11:11.018Z,57.69
2023-05-21T06:12:16.024Z,57.98
2023-05-21T06:13:17.769Z,57.97
2023-05-21T06:14:19.414Z,58.63
2023-05-21T06:15:21.130Z,57.64
2023-05-21T06:16:22.885Z,57.99
2023-05-21T06:17:24.654Z,58.75
2023-05-21T06:18:26.417Z,58.47
2023-05-21T06:19:28.111Z,58.17
2023-05-21T06:20:30.036Z,57.31
2023-05-21T06:21:31.666Z,57.38
2023-05-21T06:22:33.624Z,57.66
2023-05-21T06:23:37.756Z,57.13
2023-05-21T06:24:39.439Z,57.30
2023-05-21T06:25:41.118Z,57.57
2023-05-21T06:26:42.772Z,56.53
2023-05-21T06:27:44.506Z,56.98
2023-05-21T06:28:46.222Z,55.73
2023-05-21T06:29:47.869Z,56.11
2023-05-21T06:30:49.504Z,56.49
2023-05-21T06:31:51.197Z,56.77
2023-05-21T06:32:53.023Z,55.58
2023-05-21T06:33:54.875Z,56.08
2023-05-21T06:34:56.717Z,56.44
2023-05-21T06:35:58.389Z,55.88
2023-05-21T06:37:00.018Z,55.24
2023-05-21T06:38:01.663Z,55.79
2023-05-21T06:39:03.572Z,56.39
2023-05-21T06:40:05.977Z,56.11
2023-05-21T06:41:07.608Z,55.18
2023-05-21T06:42:09.277Z,55.53
2023-05-21T06:43:10.956Z,55.64
2023-05-21T06:44:12.587Z,55.53
2023-05-21T06:45:14.361Z,55.48
2023-05-21T06:46:16.508Z,55.37
2023-05-21T06:47:18.143Z,55.62
2023-05-21T06:48:19.779Z,56.26
2023-05-21T06:49:21.456Z,55.99
2023-05-21T06:50:24.130Z,56.51
2023-05-21T06:51:25.928Z,56.09
2023-05-21T06:52:27.635Z,56.88
2023-05-21T06:53:29.356Z,54.71
2023-05-21T06:54:31.035Z,54.16
2023-05-21T06:55:32.760Z,54.02
2023-05-21T06:56:34.469Z,53.83
2023-05-21T06:57:38.154Z,54.51
2023-05-21T06:58:39.830Z,54.10
2023-05-21T06:59:41.558Z,53.80
2023-05-21T07:00:43.203Z,54.10
2023-05-21T07:01:45.079Z,54.01
2023-05-21T07:02:46.979Z,53.72
2023-05-21T07:03:49.141Z,53.46
2023-05-21T07:04:51.988Z,53.66
2023-05-21T07:05:53.878Z,53.92
2023-05-21T07:06:55.595Z,54.33
2023-05-21T07:07:57.235Z,54.62
2023-05-21T07:08:58.968Z,54.78
2023-05-21T07:10:00.693Z,53.66
2023-05-21T07:11:02.465Z,53.37
2023-05-21T07:12:05.715Z,52.91
2023-05-21T07:13:07.435Z,53.12
2023-05-21T07:14:09.081Z,52.29
2023-05-21T07:15:11.145Z,53.34
2023-05-21T07:16:12.877Z,53.58
2023-05-21T07:17:14.635Z,53.50
2023-05-21T07:18:16.896Z,53.03
2023-05-21T07:19:18.633Z,53.15
2023-05-21T07:20:20.394Z,52.74
2023-05-21T07:21:22.163Z,53.04
2023-05-21T07:22:25.077Z,53.00
2023-05-21T07:23:28.308Z,53.70
2023-05-21T07:24:29.948Z,53.78
2023-05-21T07:25:31.705Z,53.18
2023-05-21T07:26:33.408Z,52.72
2023-05-21T07:27:35.108Z,52.96
2023-05-21T07:28:36.972Z,53.59
2023-05-21T07:29:38.688Z,53.62
2023-05-21T07:30:40.328Z,53.63
2023-05-21T07:31:42.006Z,53.02
2023-05-21T07:32:43.749Z,53.21
2023-05-21T07:33:45.508Z,54.06
2023-05-21T07:34:47.514Z,53.99
2023-05-21T07:35:49.179Z,53.39
2023-05-21T07:36:50.952Z,53.14
2023-05-21T07:37:52.589Z,53.75
2023-05-21T07:38:54.823Z,53.10
2023-05-21T07:39:57.415Z,53.82
2023-05-21T07:40:59.105Z,53.34
2023-05-21T07:42:00.840Z,53.78
2023-05-21T07:43:02.503Z,53.14
2023-05-21T07:44:04.268Z,52.72
2023-05-21T07:45:06.895Z,52.82
2023-05-21T07:46:08.567Z,53.02
2023-05-21T07:47:10.288Z,52.48
2023-05-21T07:48:11.933Z,52.33
2023-05-21T07:49:16.865Z,52.53
2023-05-21T07:50:18.810Z,52.95
2023-05-21T07:51:20.454Z,53.13
2023-05-21T07:52:22.110Z,53.44
2023-05-21T07:53:23.794Z,53.14
2023-05-21T07:54:25.465Z,52.11
2023-05-21T07:55:27.137Z,54.06
2023-05-21T07:56:29.584Z,53.64
2023-05-21T07:57:31.231Z,52.06
2023-05-21T07:58:35.241Z,53.36
2023-05-21T07:59:36.961Z,53.36
2023-05-21T08:00:45.291Z,53.46
2023-05-21T08:01:47.012Z,53.86
2023-05-21T08:02:48.720Z,53.45
2023-05-21T08:03:50.688Z,52.55
2023-05-21T08:04:52.686Z,51.88
2023-05-21T08:05:54.631Z,52.99
2023-05-21T08:06:56.628Z,53.30
2023-05-21T08:07:58.293Z,54.08
2023-05-21T08:09:01.858Z,52.61
2023-05-21T08:10:04.069Z,52.06
2023-05-21T08:11:06.168Z,52.33
2023-05-21T08:12:08.156Z,53.22
2023-05-21T08:13:11.726Z,52.54
2023-05-21T08:14:13.367Z,52.91
2023-05-21T08:15:15.148Z,51.91
2023-05-21T08:16:17.305Z,52.48
2023-05-21T08:17:19.004Z,52.41
2023-05-21T08:18:20.756Z,52.39
2023-05-21T08:19:22.455Z,51.40
2023-05-21T08:20:24.216Z,52.25
2023-05-21T08:21:26.314Z,51.53
2023-05-21T08:22:27.972Z,52.54
2023-05-21T08:23:29.757Z,53.79
2023-05-21T08:24:31.384Z,51.58
2023-05-21T08:25:33.165Z,52.49
2023-05-21T08:26:35.692Z,51.28
2023-05-21T08:27:37.342Z,52.24
2023-05-21T08:28:39.189Z,51.75
2023-05-21T08:29:41.257Z,53.06
2023-05-21T08:30:42.904Z,52.78
2023-05-21T08:31:44.601Z,51.28
2023-05-21T08:32:46.929Z,50.89
2023-05-21T08:33:52.686Z,51.91
2023-05-21T08:34:54.559Z,52.12
2023-05-21T08:35:56.242Z,53.06
2023-05-21T08:36:57.903Z,53.26
2023-05-21T08:37:59.703Z,53.54
2023-05-21T08:39:01.594Z,53.63
2023-05-21T08:40:04.396Z,53.01
2023-05-21T08:41:07.088Z,52.11
2023-05-21T08:42:47.490Z,51.94
2023-05-21T08:43:50.396Z,50.90
2023-05-21T08:44:53.219Z,51.42
2023-05-21T08:45:55.908Z,50.98
2023-05-21T08:46:57.602Z,51.36
2023-05-21T08:47:59.400Z,51.02
2023-05-21T08:49:02.962Z,51.83
2023-05-21T08:50:05.206Z,51.80
2023-05-21T08:51:07.238Z,51.67
2023-05-21T08:52:08.888Z,51.66
2023-05-21T08:53:23.363Z,51.74
2023-05-21T08:54:29.730Z,51.45
2023-05-21T08:55:31.365Z,52.09
2023-05-21T08:56:33.073Z,52.40
2023-05-21T08:57:34.803Z,50.50
2023-05-21T08:58:37.066Z,51.38
2023-05-21T08:59:43.355Z,51.27
2023-05-21T09:00:45.038Z,51.16
2023-05-21T09:01:47.128Z,49.65
2023-05-21T09:02:48.899Z,50.27
2023-05-21T09:03:50.789Z,51.50
2023-05-21T09:04:59.096Z,49.95
2023-05-21T09:06:00.805Z,51.11
2023-05-21T09:07:02.892Z,51.44
2023-05-21T09:08:15.431Z,52.48
2023-05-21T09:09:26.388Z,51.76
2023-05-21T09:10:34.079Z,50.74
2023-05-21T09:11:35.961Z,50.25
2023-05-21T09:12:37.766Z,50.29
2023-05-21T09:13:39.454Z,50.88
2023-05-21T09:14:41.111Z,50.11
2023-05-21T09:15:42.991Z,50.34
2023-05-21T09:16:48.486Z,51.41
2023-05-21T09:17:50.411Z,51.06
2023-05-21T09:18:52.112Z,51.56
2023-05-21T09:20:13.404Z,51.84
2023-05-21T09:21:31.459Z,50.94
2023-05-21T09:22:33.196Z,50.81
2023-05-21T09:23:34.877Z,51.16
2023-05-21T09:24:36.661Z,51.42
2023-05-21T09:25:39.129Z,52.28
2023-05-21T09:26:44.304Z,51.58
2023-05-21T09:27:46.081Z,51.06
2023-05-21T09:28:47.799Z,51.16
2023-05-21T09:29:49.403Z,52.27
2023-05-21T09:30:54.391Z,52.14
2023-05-21T09:31:56.179Z,50.78
2023-05-21T09:32:59.105Z,50.93
2023-05-21T09:34:01.018Z,52.64
2023-05-21T09:35:14.837Z,51.83
2023-05-21T09:36:20.180Z,50.75
2023-05-21T09:37:27.499Z,50.83
2023-05-21T09:38:30.342Z,51.05
2023-05-21T09:39:32.126Z,50.36
2023-05-21T09:40:34.760Z,51.53
2023-05-21T09:41:37.015Z,51.84
2023-05-21T09:42:39.971Z,48.66
2023-05-21T09:43:44.929Z,47.41
2023-05-21T09:44:47.432Z,46.28
2023-05-21T09:45:55.822Z,46.73
2023-05-21T09:47:01.045Z,46.97
2023-05-21T09:48:02.706Z,47.21
2023-05-21T09:49:04.434Z,48.55
2023-05-21T09:50:06.886Z,48.34
2023-05-21T09:51:12.554Z,49.06
2023-05-21T09:52:14.159Z,49.38
2023-05-21T09:53:15.781Z,48.13
2023-05-21T09:54:17.408Z,46.65
2023-05-21T09:55:22.353Z,46.69
2023-05-21T09:56:29.503Z,46.05
2023-05-21T09:57:31.219Z,47.00
2023-05-21T09:58:33.048Z,47.27
2023-05-21T09:59:38.695Z,47.10
2023-05-21T10:00:40.778Z,46.49
2023-05-21T10:01:44.215Z,46.51
2023-05-21T10:02:47.416Z,47.38
2023-05-21T10:03:59.148Z,49.59
2023-05-21T10:05:00.958Z,49.28
2023-05-21T10:06:02.616Z,49.89
2023-05-21T10:07:04.356Z,49.73
2023-05-21T10:08:06.089Z,48.29
2023-05-21T10:09:10.666Z,48.09
2023-05-21T10:10:14.197Z,46.44
2023-05-21T10:11:16.042Z,47.18
2023-05-21T10:12:18.082Z,47.38
2023-05-21T10:13:21.234Z,48.88
2023-05-21T10:14:23.782Z,48.80
2023-05-21T10:15:25.982Z,49.18
2023-05-21T10:16:28.262Z,48.90
2023-05-21T10:17:30.658Z,48.61
2023-05-21T10:18:32.632Z,48.92
2023-05-21T10:19:36.430Z,47.12
2023-05-21T10:20:38.247Z,47.32
2023-05-21T10:21:40.195Z,47.98
2023-05-21T10:22:41.844Z,47.24
2023-05-21T10:23:43.545Z,47.26
2023-05-21T10:24:45.524Z,47.36
2023-05-21T10:25:47.323Z,46.32
2023-05-21T10:26:48.954Z,47.73
2023-05-21T10:27:50.624Z,48.88
2023-05-21T10:28:53.079Z,48.56
2023-05-21T10:29:54.748Z,44.17
2023-05-21T10:30:56.451Z,44.90
2023-05-21T10:31:58.125Z,46.08
2023-05-21T10:33:00.118Z,47.80
2023-05-21T10:34:01.981Z,48.69
2023-05-21T10:35:03.932Z,49.24
2023-05-21T10:36:05.927Z,47.23
2023-05-21T10:37:08.622Z,47.49
2023-05-21T10:38:10.535Z,47.34
2023-05-21T10:39:12.967Z,46.92
2023-05-21T10:40:14.657Z,47.04
2023-05-21T10:41:16.342Z,46.02
2023-05-21T10:42:24.077Z,46.45
2023-05-21T10:43:57.925Z,45.64
2023-05-21T10:45:32.601Z,45.81
2023-05-21T10:46:59.111Z,46.09
2023-05-21T10:48:21.818Z,45.77
2023-05-21T10:49:55.754Z,44.64
2023-05-21T10:51:01.776Z,44.74
2023-05-21T10:52:06.416Z,44.93
2023-05-21T10:53:22.080Z,46.52
2023-05-21T10:54:33.839Z,46.99
2023-05-21T10:55:38.034Z,47.25
2023-05-21T10:56:46.647Z,47.28
2023-05-21T10:58:00.485Z,47.62
2023-05-21T10:59:12.570Z,46.34
2023-05-21T11:00:15.446Z,46.50
2023-05-21T11:01:19.499Z,45.26
2023-05-21T11:02:21.373Z,44.28
2023-05-21T11:03:23.242Z,45.97
2023-05-21T11:04:28.069Z,44.19
2023-05-21T11:05:51.137Z,44.88
2023-05-21T11:06:52.873Z,45.90
2023-05-21T11:07:57.224Z,46.38
2023-05-21T11:09:14.649Z,46.42
2023-05-21T11:10:35.119Z,46.74
2023-05-21T11:11:48.726Z,46.87
2023-05-21T11:13:12.843Z,44.70
2023-05-21T11:14:35.994Z,44.29
2023-05-21T11:15:59.818Z,44.86
2023-05-21T11:17:14.097Z,43.68
2023-05-21T11:18:16.044Z,44.14
2023-05-21T11:19:17.858Z,45.09
2023-05-21T11:20:21.015Z,46.13
2023-05-21T11:21:22.982Z,45.57
2023-05-21T11:22:25.917Z,45.77
2023-05-21T11:23:53.555Z,45.73
2023-05-21T11:24:56.484Z,45.74
2023-05-21T11:26:01.985Z,45.66
2023-05-21T11:27:05.068Z,46.23
2023-05-21T11:28:09.484Z,46.77
2023-05-21T11:29:11.290Z,45.09
2023-05-21T11:30:17.069Z,45.13
2023-05-21T11:31:27.124Z,45.72
2023-05-21T11:32:29.928Z,46.35
2023-05-21T11:33:31.675Z,46.79
2023-05-21T11:34:42.412Z,46.08
2023-05-21T11:35:50.270Z,46.42
2023-05-21T11:36:52.991Z,46.51
2023-05-21T11:37:54.733Z,46.20
2023-05-21T11:39:21.844Z,46.09
2023-05-21T11:40:26.302Z,42.99
2023-05-21T11:41:28.029Z,42.68
2023-05-21T11:42:31.723Z,43.45
2023-05-21T11:43:33.346Z,44.17
2023-05-21T11:44:42.130Z,44.89
2023-05-21T11:45:47.310Z,45.38
2023-05-21T11:46:49.117Z,44.07
2023-05-21T11:47:51.600Z,45.46
2023-05-21T11:48:53.297Z,46.00
2023-05-21T11:49:56.919Z,45.52
2023-05-21T11:50:58.602Z,45.88
2023-05-21T11:52:00.731Z,45.84
2023-05-21T11:53:02.510Z,45.53
2023-05-21T11:54:04.236Z,44.40
2023-05-21T11:55:07.406Z,45.06
2023-05-21T11:56:10.172Z,45.76
2023-05-21T11:57:12.548Z,45.57
2023-05-21T11:58:15.074Z,46.00
2023-05-21T11:59:18.636Z,45.25
2023-05-21T12:00:21.787Z,44.64
2023-05-21T12:01:24.379Z,44.44
2023-05-21T12:02:32.569Z,44.36
2023-05-21T12:03:37.297Z,43.18
2023-05-21T12:04:39.037Z,44.42
2023-05-21T12:05:47.150Z,45.26
2023-05-21T12:06:50.845Z,46.18
2023-05-21T12:07:54.600Z,43.87
2023-05-21T12:08:58.478Z,44.81
2023-05-21T12:10:00.342Z,45.23
2023-05-21T12:11:02.800Z,44.30
2023-05-21T12:12:05.995Z,45.55
2023-05-21T12:13:07.641Z,44.19
2023-05-21T12:14:10.578Z,44.66
2023-05-21T12:15:13.592Z,44.33
2023-05-21T12:16:15.434Z,45.05
2023-05-21T12:17:31.715Z,44.66
2023-05-21T12:18:33.420Z,45.07
2023-05-21T12:19:35.201Z,45.25
2023-05-21T12:20:37.313Z,45.79
2023-05-21T12:21:39.132Z,45.74
2023-05-21T12:22:42.558Z,44.24
2023-05-21T12:23:44.222Z,44.26
2023-05-21T12:24:46.208Z,44.21
2023-05-21T12:25:47.845Z,42.78
2023-05-21T12:26:50.098Z,44.21
2023-05-21T12:27:57.970Z,44.27
2023-05-21T12:28:59.886Z,42.94
2023-05-21T12:30:01.570Z,42.98
2023-05-21T12:31:03.183Z,43.59
2023-05-21T12:32:09.263Z,42.63
2023-05-21T12:33:12.237Z,42.15
2023-05-21T12:34:15.564Z,43.22
2023-05-21T12:35:24.061Z,43.04
2023-05-21T12:36:27.759Z,42.95
2023-05-21T12:37:33.990Z,43.16
2023-05-21T12:38:36.637Z,43.96
2023-05-21T12:39:48.338Z,43.45
2023-05-21T12:40:49.969Z,41.96
2023-05-21T12:41:54.449Z,43.34
2023-05-21T12:42:56.114Z,43.81
2023-05-21T12:43:57.750Z,44.82
2023-05-21T12:44:59.507Z,44.30
2023-05-21T12:46:01.329Z,44.56
2023-05-21T12:47:03.850Z,43.80
2023-05-21T12:48:05.649Z,44.30
2023-05-21T12:49:07.344Z,43.48
2023-05-21T12:50:13.962Z,44.20
2023-05-21T12:51:15.927Z,43.23
2023-05-21T12:52:19.197Z,43.47
2023-05-21T12:53:20.872Z,43.76
2023-05-21T12:54:30.281Z,43.76
2023-05-21T12:55:31.969Z,44.92
2023-05-21T12:56:44.399Z,43.95
2023-05-21T12:57:46.611Z,43.19
2023-05-21T12:58:49.952Z,42.23
2023-05-21T12:59:58.482Z,42.73
2023-05-21T13:01:00.961Z,43.72
2023-05-21T13:02:03.683Z,42.04
2023-05-21T13:03:06.732Z,43.13
2023-05-21T13:04:08.832Z,42.01
2023-05-21T13:05:11.556Z,42.47
2023-05-21T13:06:13.268Z,42.66
2023-05-21T13:07:16.694Z,42.95
2023-05-21T13:08:18.378Z,43.49
2023-05-21T13:09:20.041Z,44.14
2023-05-21T13:10:21.771Z,43.00
2023-05-21T13:11:23.599Z,42.92
2023-05-21T13:12:26.865Z,41.82
2023-05-21T13:13:28.503Z,42.64
2023-05-21T13:14:30.103Z,41.39
2023-05-21T13:15:31.845Z,41.27
2023-05-21T13:16:33.872Z,41.88
2023-05-21T13:17:35.643Z,42.79
2023-05-21T13:18:37.377Z,43.48
2023-05-21T13:19:39.053Z,43.44
2023-05-21T13:20:40.737Z,43.71
2023-05-21T13:21:42.375Z,43.75
2023-05-21T13:22:50.128Z,45.00
2023-05-21T13:23:51.836Z,44.45
2023-05-21T13:24:53.510Z,44.21
2023-05-21T13:25:55.172Z,44.56
2023-05-21T13:26:56.896Z,44.49
2023-05-21T13:28:05.209Z,42.70
2023-05-21T13:29:06.846Z,41.45
2023-05-21T13:30:09.546Z,41.35
2023-05-21T13:31:12.433Z,41.46
2023-05-21T13:32:14.104Z,41.89
2023-05-21T13:33:16.153Z,41.36
2023-05-21T13:34:17.926Z,41.95
2023-05-21T13:35:19.941Z,42.05